Time;durP1;ratioP1;P1;durP2;ratioP2;P2;SDS_P1;SDS_P2;PMS_P1;PMS_P2;Temp;Humidity;BMP_temperature;BMP_pressure;BME280_temperature;BME280_humidity;BME280_pressure;Samples;Min_cycle;Max_cycle;Signal;HPM_P1;HPM_P2
2022/01/02 00:00:22;;;;;;;5.30;1.27;;;29.80;82.90;;;;;;5107645;28;20379;-78
2022/01/02 00:02:58;;;;;;;3.42;1.13;;;29.70;82.40;;;;;;5109864;28;20404;-78
2022/01/02 00:05:27;;;;;;;4.20;1.23;;;29.70;80.60;;;;;;5109839;28;20421;-78
2022/01/02 00:07:59;;;;;;;3.75;1.10;;;29.20;80.80;;;;;;5108589;28;20449;-78
2022/01/02 00:10:30;;;;;;;3.75;1.15;;;29.00;84.00;;;;;;5109793;28;20355;-82
2022/01/02 00:12:59;;;;;;;3.20;1.10;;;28.90;83.40;;;;;;5109946;28;20362;-79
2022/01/02 00:15:27;;;;;;;3.40;1.10;;;29.40;79.30;;;;;;5110476;28;20835;-79
2022/01/02 00:17:56;;;;;;;3.47;1.08;;;30.30;78.10;;;;;;5109759;28;20367;-81
2022/01/02 00:20:45;;;;;;;3.05;0.90;;;30.80;75.40;;;;;;5110473;28;20424;-78
2022/01/02 00:23:19;;;;;;;3.15;0.95;;;31.50;68.10;;;;;;5109762;28;20370;-78
2022/01/02 00:25:53;;;;;;;3.20;1.05;;;31.70;68.00;;;;;;5109736;28;20391;-78
2022/01/02 00:28:20;;;;;;;4.65;1.20;;;32.10;66.90;;;;;;5109554;28;20363;-79
2022/01/02 00:30:49;;;;;;;2.50;1.10;;;32.40;65.20;;;;;;5109135;28;20363;-78
2022/01/02 00:33:18;;;;;;;2.00;1.00;;;32.40;64.70;;;;;;5109341;28;20402;-79
2022/01/02 00:35:46;;;;;;;3.08;1.02;;;32.50;63.20;;;;;;5109425;28;20461;-79
2022/01/02 00:38:22;;;;;;;2.50;1.00;;;32.00;62.60;;;;;;5109364;28;20386;-78
2022/01/02 00:40:55;;;;;;;3.33;1.00;;;32.10;62.90;;;;;;5119440;27;20421;-78
2022/01/02 00:43:32;;;;;;;1.98;0.90;;;32.20;62.70;;;;;;5129850;27;20391;-80
2022/01/02 00:46:04;;;;;;;2.05;0.93;;;32.60;60.00;;;;;;5130130;27;20396;-77
2022/01/02 00:48:35;;;;;;;1.85;0.80;;;33.20;59.20;;;;;;5130057;27;20362;-79
2022/01/02 00:51:13;;;;;;;2.15;1.00;;;33.20;57.20;;;;;;5130037;27;20449;-78
2022/01/02 00:53:46;;;;;;;3.10;1.00;;;33.30;58.20;;;;;;5129538;27;20367;-78
2022/01/02 00:56:15;;;;;;;2.20;1.00;;;32.80;57.80;;;;;;5129932;27;20377;-78
2022/01/02 00:58:58;;;;;;;1.85;1.00;;;32.50;60.20;;;;;;5129446;27;20371;-77
2022/01/02 01:01:30;;;;;;;2.03;0.90;;;32.70;59.70;;;;;;5129841;27;20369;-79
2022/01/02 01:03:58;;;;;;;3.33;1.20;;;33.20;59.10;;;;;;5130010;27;20364;-83
2022/01/02 01:06:28;;;;;;;2.00;0.95;;;33.70;56.80;;;;;;5129464;27;20738;-79
2022/01/02 01:08:58;;;;;;;1.98;0.98;;;34.30;53.60;;;;;;5129432;27;20419;-79
2022/01/02 01:11:27;;;;;;;3.55;1.10;;;34.60;53.10;;;;;;5129278;27;20365;-78
2022/01/02 01:13:58;;;;;;;2.63;0.90;;;34.80;55.30;;;;;;5129283;27;20452;-78
2022/01/02 01:16:26;;;;;;;2.85;1.10;;;34.70;56.10;;;;;;5129213;27;20942;-80
2022/01/02 01:18:53;;;;;;;2.43;1.00;;;34.50;55.20;;;;;;5129144;27;20372;-79
2022/01/02 01:21:20;;;;;;;1.60;0.98;;;34.30;55.00;;;;;;5129147;27;20739;-77
2022/01/02 01:23:47;;;;;;;2.57;1.10;;;34.20;54.00;;;;;;5129153;27;20365;-80
2022/01/02 01:26:17;;;;;;;2.90;0.90;;;34.40;53.80;;;;;;5129166;27;20396;-76
2022/01/02 01:28:44;;;;;;;3.63;1.00;;;34.90;51.90;;;;;;5128842;27;20365;-78
2022/01/02 01:31:11;;;;;;;2.20;1.00;;;34.60;53.40;;;;;;5128939;27;20387;-77
2022/01/02 01:33:38;;;;;;;1.80;0.90;;;34.20;55.40;;;;;;5128978;27;20860;-78
2022/01/02 01:36:05;;;;;;;2.47;0.90;;;34.30;55.80;;;;;;5128948;28;20883;-78
2022/01/02 01:38:31;;;;;;;2.10;1.00;;;34.80;54.70;;;;;;5128866;28;20396;-77
2022/01/02 01:41:05;;;;;;;2.20;1.00;;;34.90;54.40;;;;;;5130961;27;20399;-77
2022/01/02 01:43:51;;;;;;;2.45;0.88;;;35.00;54.20;;;;;;5133255;27;20840;-78
2022/01/02 01:46:18;;;;;;;2.40;1.00;;;35.50;53.00;;;;;;5133133;27;20930;-80
2022/01/02 01:48:55;;;;;;;2.67;1.00;;;35.70;51.10;;;;;;5133253;27;20460;-78
2022/01/02 01:51:23;;;;;;;1.58;1.00;;;36.00;50.30;;;;;;5133126;27;20812;-77
2022/01/02 01:53:51;;;;;;;2.00;1.20;;;35.40;49.60;;;;;;5133028;27;20376;-77
2022/01/02 01:56:18;;;;;;;3.63;1.00;;;34.70;49.70;;;;;;5132694;27;20853;-79
2022/01/02 01:58:45;;;;;;;2.25;1.02;;;34.50;50.70;;;;;;5132905;27;20365;-78
2022/01/02 02:01:12;;;;;;;1.75;1.00;;;34.50;52.50;;;;;;5132911;27;20388;-78
2022/01/02 02:03:39;;;;;;;2.10;0.95;;;35.20;52.40;;;;;;5133199;27;20365;-76
2022/01/02 02:06:06;;;;;;;2.28;0.93;;;36.20;50.10;;;;;;5132949;27;20951;-78
2022/01/02 02:08:35;;;;;;;2.30;0.90;;;35.60;49.30;;;;;;5132685;27;20446;-79
2022/01/02 02:11:03;;;;;;;5.32;1.10;;;34.50;48.90;;;;;;5132816;27;20395;-78
2022/01/02 02:13:30;;;;;;;1.77;0.90;;;34.10;51.40;;;;;;5132711;27;20439;-76
2022/01/02 02:16:00;;;;;;;1.67;0.80;;;33.90;52.50;;;;;;5132644;27;20372;-78
2022/01/02 02:18:27;;;;;;;1.27;0.82;;;34.40;53.40;;;;;;5132619;27;20452;-78
2022/01/02 02:20:54;;;;;;;2.45;0.90;;;35.60;48.80;;;;;;5132690;27;20481;-79
2022/01/02 02:23:21;;;;;;;3.28;0.90;;;36.30;48.20;;;;;;5132613;27;20365;-79
2022/01/02 02:25:48;;;;;;;1.65;0.80;;;36.90;47.70;;;;;;5132274;27;20420;-79
2022/01/02 02:28:17;;;;;;;1.77;0.90;;;37.70;47.60;;;;;;5132391;27;20460;-78
2022/01/02 02:30:46;;;;;;;2.47;0.95;;;37.90;45.50;;;;;;5132429;27;20373;-78
2022/01/02 02:33:14;;;;;;;1.98;0.80;;;37.70;47.20;;;;;;5132306;27;20361;-79
2022/01/02 02:35:43;;;;;;;2.67;0.90;;;37.80;46.00;;;;;;5132887;27;20400;-77
2022/01/02 02:38:11;;;;;;;4.40;0.80;;;37.60;46.30;;;;;;5132350;27;20412;-79
2022/01/02 02:40:39;;;;;;;2.03;0.90;;;37.10;46.40;;;;;;5131956;27;20884;-78
2022/01/02 02:43:24;;;;;;;1.80;0.90;;;37.20;47.70;;;;;;5132069;27;20448;-77
2022/01/02 02:51:39;;;;;;;1.80;1.00;;;38.70;45.50;;;;;;5132574;27;20368;-79
2022/01/02 02:54:07;;;;;;;2.33;0.90;;;38.60;45.90;;;;;;5132087;27;20369;-79
2022/01/02 02:56:43;;;;;;;2.17;0.90;;;39.10;44.10;;;;;;5131908;27;20994;-78
2022/01/02 02:59:11;;;;;;;2.15;0.90;;;39.40;44.50;;;;;;5131874;27;20853;-79
2022/01/02 03:01:39;;;;;;;1.13;0.90;;;39.80;43.60;;;;;;5131763;27;20448;-79
2022/01/02 03:04:07;;;;;;;2.00;0.90;;;39.80;43.30;;;;;;5131781;27;20361;-78
2022/01/02 03:06:34;;;;;;;4.88;1.00;;;39.50;42.60;;;;;;5113366;27;20453;-79
2022/01/02 03:09:07;;;;;;;1.45;0.90;;;39.60;43.20;;;;;;5131610;27;20365;-79
2022/01/02 03:11:36;;;;;;;1.80;0.90;;;39.40;43.90;;;;;;5131585;27;20365;-81
2022/01/02 03:14:04;;;;;;;4.10;1.00;;;38.90;44.10;;;;;;5131539;27;20365;-79
2022/01/02 03:16:32;;;;;;;2.80;0.90;;;38.40;43.40;;;;;;5113925;27;20381;-79
2022/01/02 03:19:00;;;;;;;2.55;0.77;;;38.10;45.30;;;;;;5131641;27;20867;-79
2022/01/02 03:21:27;;;;;;;3.00;1.00;;;38.60;44.60;;;;;;5131483;27;20376;-78
2022/01/02 03:23:54;;;;;;;2.03;0.90;;;39.70;44.60;;;;;;5131522;27;20761;-79
2022/01/02 03:26:22;;;;;;;2.45;0.80;;;40.50;43.00;;;;;;5131436;27;20899;-79
2022/01/02 03:28:49;;;;;;;1.92;1.02;;;41.40;41.10;;;;;;5131362;27;20383;-79
2022/01/02 03:31:17;;;;;;;2.03;1.00;;;41.20;42.80;;;;;;5131068;27;20449;-78
2022/01/02 03:33:44;;;;;;;3.15;1.25;;;41.20;45.20;;;;;;5131273;27;20378;-78
2022/01/02 03:36:11;;;;;;;3.55;1.20;;;41.00;44.60;;;;;;5131309;27;20433;-81
2022/01/02 03:38:38;;;;;;;2.45;1.20;;;41.20;44.00;;;;;;5131187;27;20369;-80
2022/01/02 03:41:06;;;;;;;4.47;1.30;;;41.60;44.00;;;;;;5130883;27;20381;-79
2022/01/02 03:43:33;;;;;;;3.88;1.40;;;41.90;43.20;;;;;;5131016;27;20856;-80
2022/01/02 03:46:02;;;;;;;2.60;1.20;;;41.80;42.30;;;;;;5130960;27;20389;-80
2022/01/02 03:48:31;;;;;;;2.92;1.23;;;41.60;42.80;;;;;;5130886;27;20417;-80
2022/01/02 03:50:58;;;;;;;2.40;1.17;;;41.90;43.10;;;;;;5131132;27;20365;-78
2022/01/02 03:53:25;;;;;;;2.45;1.10;;;42.00;42.40;;;;;;5130876;27;20741;-79
2022/01/02 03:55:53;;;;;;;3.28;1.20;;;42.20;42.60;;;;;;5131328;27;20361;-79
2022/01/02 03:58:20;;;;;;;1.83;1.00;;;41.90;43.10;;;;;;5131640;27;20365;-79
2022/01/02 04:00:47;;;;;;;2.70;1.10;;;42.10;42.10;;;;;;5131425;27;20709;-77
2022/01/02 04:03:16;;;;;;;2.88;1.23;;;42.60;42.90;;;;;;5130213;27;20432;-78
2022/01/02 04:05:44;;;;;;;4.72;1.30;;;42.60;42.50;;;;;;5129761;27;20774;-78
2022/01/02 04:08:12;;;;;;;2.78;1.20;;;42.50;43.00;;;;;;5131287;27;20766;-79
2022/01/02 04:10:39;;;;;;;2.00;1.20;;;42.30;42.80;;;;;;5112240;27;20369;-77
2022/01/02 04:13:06;;;;;;;2.88;1.20;;;42.30;42.30;;;;;;5130438;27;20362;-79
2022/01/02 04:15:34;;;;;;;3.30;1.20;;;41.90;44.10;;;;;;5130347;27;20413;-78
2022/01/02 04:18:01;;;;;;;4.65;1.40;;;42.30;42.30;;;;;;5130036;27;20374;-79
2022/01/02 04:20:29;;;;;;;2.30;1.10;;;42.70;41.30;;;;;;5130342;27;20425;-78
2022/01/02 04:22:56;;;;;;;2.63;1.30;;;42.30;43.10;;;;;;5130366;27;20365;-78
2022/01/02 04:25:24;;;;;;;2.73;1.20;;;42.40;41.90;;;;;;5130250;27;20387;-78
2022/01/02 04:27:51;;;;;;;3.10;1.30;;;42.70;41.30;;;;;;5130051;27;20381;-78
2022/01/02 04:30:18;;;;;;;3.38;1.38;;;42.60;41.30;;;;;;5130186;27;20438;-78
2022/01/02 04:32:48;;;;;;;3.13;1.15;;;42.20;43.30;;;;;;5129925;27;20373;-78
2022/01/02 04:35:16;;;;;;;1.80;1.10;;;42.50;42.70;;;;;;5129963;27;20856;-78
2022/01/02 04:37:43;;;;;;;2.75;1.27;;;42.70;41.20;;;;;;5130183;27;20387;-77
2022/01/02 04:40:11;;;;;;;5.82;1.50;;;42.40;42.70;;;;;;5129685;27;20381;-78
2022/01/02 04:42:38;;;;;;;2.35;1.30;;;42.60;42.10;;;;;;5129849;27;20369;-78
2022/01/02 04:45:07;;;;;;;4.35;1.35;;;42.70;42.60;;;;;;5129845;27;20376;-79
2022/01/02 04:47:35;;;;;;;2.38;1.20;;;42.40;42.60;;;;;;5129672;27;20456;-79
2022/01/02 04:50:03;;;;;;;5.20;1.30;;;42.00;41.60;;;;;;5129673;27;20737;-79
2022/01/02 04:52:30;;;;;;;4.78;1.40;;;41.80;41.80;;;;;;5129490;27;20392;-79
2022/01/02 04:54:57;;;;;;;2.40;1.30;;;41.90;42.70;;;;;;5129717;27;20937;-79
2022/01/02 04:57:24;;;;;;;4.00;1.30;;;42.40;41.70;;;;;;5129561;27;20373;-78
2022/01/02 04:59:51;;;;;;;4.75;1.52;;;42.90;40.20;;;;;;5129653;27;20907;-79
2022/01/02 05:02:18;;;;;;;3.42;1.48;;;42.30;41.50;;;;;;5129624;27;20433;-79
2022/01/02 05:04:45;;;;;;;5.40;1.60;;;41.70;41.90;;;;;;5129639;27;20440;-78
2022/01/02 05:07:13;;;;;;;3.83;1.40;;;41.30;43.00;;;;;;5129415;27;20415;-78
2022/01/02 05:09:41;;;;;;;4.13;1.40;;;41.40;43.20;;;;;;5129511;27;20381;-78
2022/01/02 05:12:09;;;;;;;2.80;1.30;;;41.60;42.70;;;;;;5129343;27;20369;-79
2022/01/02 05:14:36;;;;;;;3.67;1.42;;;41.70;42.90;;;;;;5129285;27;20376;-79
2022/01/02 05:17:03;;;;;;;3.22;1.52;;;41.60;43.00;;;;;;5129231;27;20836;-78
2022/01/02 05:19:30;;;;;;;4.50;1.42;;;41.70;42.70;;;;;;5129499;27;20728;-78
2022/01/02 05:21:57;;;;;;;4.25;1.40;;;42.20;42.20;;;;;;5129194;27;20372;-79
2022/01/02 05:24:24;;;;;;;3.92;1.40;;;42.10;42.00;;;;;;5129245;27;20371;-79
2022/01/02 05:26:53;;;;;;;3.87;1.57;;;42.30;41.30;;;;;;5129465;27;20484;-79
2022/01/02 05:29:21;;;;;;;5.82;2.50;;;42.60;42.10;;;;;;5129107;27;20365;-80
2022/01/02 05:31:49;;;;;;;3.25;1.48;;;42.00;41.60;;;;;;5111016;27;20426;-79
2022/01/02 05:34:17;;;;;;;4.15;1.67;;;42.20;41.60;;;;;;5129668;27;20388;-79
2022/01/02 05:36:48;;;;;;;4.60;1.80;;;42.30;42.20;;;;;;5128979;28;20913;-79
2022/01/02 05:39:17;;;;;;;4.97;1.60;;;42.30;42.20;;;;;;5129545;28;20449;-80
2022/01/02 05:41:46;;;;;;;4.78;1.65;;;41.60;41.90;;;;;;5128818;28;20388;-79
2022/01/02 05:44:18;;;;;;;3.35;1.80;;;41.40;41.10;;;;;;5128248;28;20414;-79
2022/01/02 05:46:46;;;;;;;5.07;1.77;;;40.90;43.80;;;;;;5128850;28;20401;-79
2022/01/02 05:49:14;;;;;;;3.78;1.70;;;40.50;43.50;;;;;;5129344;28;20782;-80
2022/01/02 05:51:41;;;;;;;4.30;1.77;;;40.50;42.80;;;;;;5128801;28;20420;-78
2022/01/02 05:54:08;;;;;;;5.37;2.60;;;40.70;43.50;;;;;;5128909;28;20384;-78
2022/01/02 05:56:35;;;;;;;7.22;4.72;;;40.90;42.50;;;;;;5128834;28;20439;-78
2022/01/02 05:59:03;;;;;;;4.55;1.88;;;41.00;42.10;;;;;;5128707;28;20473;-78
2022/01/02 06:01:30;;;;;;;5.07;2.07;;;40.90;42.50;;;;;;5129414;28;20376;-78
2022/01/02 06:03:57;;;;;;;5.65;1.67;;;41.20;42.40;;;;;;5128715;28;20376;-79
2022/01/02 06:06:24;;;;;;;5.72;1.58;;;40.70;43.10;;;;;;5128676;28;20480;-78
2022/01/02 06:08:51;;;;;;;3.73;1.50;;;40.50;42.80;;;;;;5128614;28;20778;-78
2022/01/02 06:11:18;;;;;;;3.78;1.58;;;40.10;43.60;;;;;;5128821;28;20369;-79
2022/01/02 06:13:45;;;;;;;3.83;1.60;;;40.20;43.40;;;;;;5128689;28;20361;-79
2022/01/02 06:16:13;;;;;;;4.70;1.60;;;40.50;43.60;;;;;;5110271;28;20392;-79
2022/01/02 06:18:40;;;;;;;5.38;1.73;;;40.50;43.50;;;;;;5128735;28;20467;-85
2022/01/02 06:21:07;;;;;;;4.85;1.70;;;40.60;43.20;;;;;;5128944;28;20428;-84
2022/01/02 06:23:34;;;;;;;5.38;1.80;;;40.20;44.00;;;;;;5128604;28;20365;-82
2022/01/02 06:26:01;;;;;;;4.15;1.70;;;40.40;44.60;;;;;;5129132;28;20397;-80
2022/01/02 06:28:28;;;;;;;4.22;1.80;;;40.40;43.70;;;;;;5130930;27;20377;-81
2022/01/02 06:30:55;;;;;;;5.32;1.75;;;40.60;43.70;;;;;;5132031;27;20376;-80
2022/01/02 06:33:22;;;;;;;5.45;1.80;;;40.40;43.30;;;;;;5132459;27;20372;-82
2022/01/02 06:35:49;;;;;;;5.60;1.85;;;40.40;44.20;;;;;;5132161;27;20729;-81
2022/01/02 06:38:21;;;;;;;3.42;1.60;;;40.30;43.70;;;;;;5132278;27;20446;-80
2022/01/02 06:40:49;;;;;;;6.43;1.90;;;39.90;44.30;;;;;;5132082;27;20373;-79
2022/01/02 06:43:17;;;;;;;5.10;1.80;;;39.90;44.80;;;;;;5132093;27;20384;-79
2022/01/02 06:45:45;;;;;;;3.50;1.67;;;39.60;44.80;;;;;;5131958;27;20805;-79
2022/01/02 06:48:12;;;;;;;5.70;1.70;;;39.50;45.00;;;;;;5131950;27;20373;-79
2022/01/02 06:50:39;;;;;;;5.13;1.73;;;39.30;45.60;;;;;;5131869;27;20698;-79
2022/01/02 06:53:07;;;;;;;4.50;1.70;;;39.40;46.00;;;;;;5131984;27;20372;-80
2022/01/02 06:55:34;;;;;;;6.05;2.15;;;39.40;45.70;;;;;;5131757;27;20735;-80
2022/01/02 06:58:02;;;;;;;5.03;1.85;;;39.40;45.30;;;;;;5131899;27;20412;-80
2022/01/02 07:00:29;;;;;;;6.55;1.80;;;39.00;45.90;;;;;;5131687;27;20860;-80
2022/01/02 07:02:56;;;;;;;4.90;2.00;;;39.00;46.30;;;;;;5131657;27;20368;-79
2022/01/02 07:05:23;;;;;;;4.93;2.17;;;38.80;47.30;;;;;;5113112;27;20381;-80
2022/01/02 07:07:52;;;;;;;6.50;2.50;;;38.40;47.50;;;;;;5131711;27;20386;-80
2022/01/02 07:10:19;;;;;;;6.05;2.13;;;38.60;47.60;;;;;;5131801;27;20693;-79
2022/01/02 07:12:46;;;;;;;6.40;2.05;;;38.10;48.00;;;;;;5131515;27;20521;-79
2022/01/02 07:15:14;;;;;;;6.80;2.10;;;36.90;49.50;;;;;;5131449;27;20361;-80
2022/01/02 07:17:41;;;;;;;6.63;1.93;;;35.60;51.80;;;;;;5131480;27;20919;-80
2022/01/02 07:20:09;;;;;;;6.28;2.00;;;34.70;53.40;;;;;;5131323;27;20369;-80
2022/01/02 07:22:36;;;;;;;5.43;2.03;;;34.40;53.50;;;;;;5131508;27;20450;-80
2022/01/02 07:25:04;;;;;;;6.75;2.30;;;34.70;53.60;;;;;;5131289;27;20377;-82
2022/01/02 07:27:31;;;;;;;6.03;2.30;;;34.90;53.00;;;;;;5131409;27;20746;-80
2022/01/02 07:29:59;;;;;;;5.70;1.95;;;35.20;52.30;;;;;;5131305;27;20766;-80
2022/01/02 07:32:26;;;;;;;4.82;1.80;;;35.50;50.10;;;;;;5131336;27;20369;-81
2022/01/02 07:34:53;;;;;;;6.20;3.58;;;35.60;49.40;;;;;;5131099;27;20365;-80
2022/01/02 07:37:20;;;;;;;5.55;1.92;;;35.80;50.00;;;;;;5131325;27;20365;-80
2022/01/02 07:39:47;;;;;;;7.05;2.88;;;35.90;49.40;;;;;;5130696;27;20408;-80
2022/01/02 07:42:14;;;;;;;5.38;2.28;;;35.80;50.30;;;;;;5131097;27;20944;-79
2022/01/02 07:44:41;;;;;;;5.50;2.13;;;35.50;50.50;;;;;;5131054;27;20444;-82
2022/01/02 07:47:08;;;;;;;7.07;2.10;;;35.50;50.40;;;;;;5130875;27;20396;-81
2022/01/02 07:49:35;;;;;;;5.07;1.80;;;35.20;50.10;;;;;;5131028;27;20365;-80
2022/01/02 07:52:03;;;;;;;5.13;1.60;;;35.20;51.10;;;;;;5130912;27;20421;-82
2022/01/02 07:54:30;;;;;;;6.18;1.80;;;35.50;51.20;;;;;;5130874;27;20365;-80
2022/01/02 07:56:57;;;;;;;5.93;1.73;;;35.30;50.50;;;;;;5130861;27;20422;-82
2022/01/02 07:59:24;;;;;;;5.68;1.80;;;35.00;50.80;;;;;;5130796;27;20376;-81
2022/01/02 08:01:51;;;;;;;4.22;1.60;;;34.90;50.80;;;;;;5130741;27;20377;-81
2022/01/02 08:04:19;;;;;;;4.90;1.75;;;34.80;51.30;;;;;;5130638;27;20369;-82
2022/01/02 08:06:46;;;;;;;4.40;1.60;;;34.70;50.40;;;;;;5130529;27;20465;-78
2022/01/02 08:09:13;;;;;;;3.95;1.58;;;34.40;50.90;;;;;;5130539;27;20368;-80
2022/01/02 08:11:40;;;;;;;5.30;1.58;;;34.00;51.20;;;;;;5130516;27;20461;-79
2022/01/02 08:14:07;;;;;;;4.55;1.50;;;33.90;51.70;;;;;;5130521;27;20364;-79
2022/01/02 08:16:34;;;;;;;6.82;1.80;;;33.40;52.60;;;;;;5130421;27;20384;-79
2022/01/02 08:19:05;;;;;;;5.63;1.70;;;32.70;54.30;;;;;;5130384;27;20365;-78
2022/01/02 08:21:33;;;;;;;8.05;2.03;;;32.50;55.40;;;;;;5130187;27;20733;-78
2022/01/02 08:27:22;;;;;;;7.13;1.88;;;31.30;59.00;;;;;;5130212;27;20400;-80
2022/01/02 08:29:49;;;;;;;6.80;2.00;;;30.90;60.10;;;;;;5130027;27;20363;-78
2022/01/02 08:32:16;;;;;;;6.70;1.88;;;30.60;60.80;;;;;;5129982;27;20380;-79
2022/01/02 08:34:43;;;;;;;9.00;2.00;;;30.30;61.50;;;;;;5130083;27;20369;-78
2022/01/02 08:37:11;;;;;;;8.43;2.10;;;30.10;62.40;;;;;;5129880;27;20389;-80
2022/01/02 08:39:38;;;;;;;8.00;1.90;;;29.90;62.80;;;;;;5129952;27;20430;-78
2022/01/02 08:42:05;;;;;;;10.75;2.00;;;29.70;63.40;;;;;;5130536;27;20373;-78
2022/01/02 08:44:32;;;;;;;7.20;2.03;;;29.60;63.90;;;;;;5130080;27;20369;-78
2022/01/02 08:46:59;;;;;;;6.45;2.10;;;29.50;64.00;;;;;;5129829;27;20393;-78
2022/01/02 08:49:26;;;;;;;5.80;1.80;;;29.40;64.10;;;;;;5129848;27;20705;-78
2022/01/02 08:51:55;;;;;;;6.88;2.05;;;29.20;64.40;;;;;;5129315;27;20365;-79
2022/01/02 08:54:22;;;;;;;10.00;1.88;;;28.90;64.70;;;;;;5129888;27;20418;-78
2022/01/02 08:56:49;;;;;;;8.10;2.00;;;28.70;64.50;;;;;;5129627;27;20423;-79
2022/01/02 08:59:17;;;;;;;6.97;1.80;;;28.60;64.60;;;;;;5129588;27;20357;-79
2022/01/02 09:01:44;;;;;;;9.65;1.90;;;28.30;65.30;;;;;;5129889;27;20467;-79
2022/01/02 09:04:12;;;;;;;7.67;1.70;;;28.20;66.10;;;;;;5129532;27;20375;-79
2022/01/02 09:06:39;;;;;;;7.97;1.90;;;27.90;66.00;;;;;;5129219;27;20751;-77
2022/01/02 09:09:06;;;;;;;7.03;1.80;;;27.70;66.20;;;;;;5129486;27;20362;-77
2022/01/02 09:11:33;;;;;;;8.25;1.85;;;27.50;66.40;;;;;;5129619;27;20873;-77
2022/01/02 09:14:02;;;;;;;7.88;2.00;;;27.40;67.10;;;;;;5129400;27;20376;-77
2022/01/02 09:16:30;;;;;;;6.70;1.73;;;27.30;67.60;;;;;;5129301;27;20368;-77
2022/01/02 09:18:57;;;;;;;7.05;1.92;;;27.20;68.30;;;;;;5129197;27;20366;-77
2022/01/02 09:21:24;;;;;;;5.80;1.67;;;27.00;68.80;;;;;;5129213;27;20373;-78
2022/01/02 09:23:51;;;;;;;7.32;1.88;;;27.00;69.30;;;;;;5129061;27;20430;-78
2022/01/02 09:26:18;;;;;;;7.53;1.63;;;26.90;69.60;;;;;;5129094;27;20902;-79
2022/01/02 09:28:45;;;;;;;10.02;2.20;;;26.80;70.50;;;;;;5129126;27;20369;-77
2022/01/02 09:31:12;;;;;;;6.88;1.90;;;26.70;71.00;;;;;;5129230;27;20392;-79
2022/01/02 09:33:39;;;;;;;9.20;2.15;;;26.70;71.80;;;;;;5129018;27;20365;-78
2022/01/02 09:36:06;;;;;;;11.15;2.20;;;26.70;72.20;;;;;;5129007;27;20414;-79
2022/01/02 09:38:33;;;;;;;10.05;2.28;;;26.60;72.90;;;;;;5129225;28;20893;-78
2022/01/02 09:41:01;;;;;;;7.22;1.90;;;26.60;73.50;;;;;;5110610;28;20393;-79
2022/01/02 09:43:28;;;;;;;8.43;1.97;;;26.50;74.60;;;;;;5129117;28;20369;-79
2022/01/02 09:45:55;;;;;;;10.15;2.13;;;26.40;75.90;;;;;;5129576;28;20396;-79
2022/01/02 09:48:23;;;;;;;9.07;2.10;;;26.40;77.10;;;;;;5129046;28;20369;-79
2022/01/02 09:50:51;;;;;;;10.07;2.20;;;26.20;78.20;;;;;;5129023;28;20452;-79
2022/01/02 09:53:19;;;;;;;11.20;2.30;;;26.20;79.80;;;;;;5129079;28;20396;-78
2022/01/02 09:55:46;;;;;;;8.57;2.28;;;26.20;80.70;;;;;;5129000;28;20377;-78
2022/01/02 09:58:14;;;;;;;8.15;1.90;;;26.30;82.30;;;;;;5128908;28;20369;-78
2022/01/02 10:00:46;;;;;;;8.30;2.05;;;26.30;83.00;;;;;;5110426;28;20391;-78
2022/01/02 10:03:14;;;;;;;11.93;2.33;;;26.40;83.60;;;;;;5131268;27;20396;-79
2022/01/02 10:05:52;;;;;;;10.98;2.40;;;26.40;84.70;;;;;;5132906;27;20396;-79
2022/01/02 10:08:31;;;;;;;9.45;2.40;;;26.30;84.80;;;;;;5133483;27;20373;-78
2022/01/02 10:11:02;;;;;;;8.43;2.17;;;26.30;85.40;;;;;;5132900;27;20474;-77
2022/01/02 10:13:48;;;;;;;9.43;2.53;;;26.20;86.50;;;;;;5132788;27;20381;-79
2022/01/02 10:16:31;;;;;;;9.23;2.30;;;26.20;88.20;;;;;;5132613;27;20368;-79
2022/01/02 10:19:00;;;;;;;9.25;2.40;;;26.00;89.40;;;;;;5115002;27;20361;-79
2022/01/02 10:21:28;;;;;;;11.65;2.38;;;25.90;90.50;;;;;;5132646;27;20373;-78
2022/01/02 10:24:22;;;;;;;8.73;2.20;;;25.80;91.50;;;;;;5114382;27;20371;-78
2022/01/02 10:27:10;;;;;;;9.55;2.20;;;25.70;91.90;;;;;;5114329;27;20867;-77
2022/01/02 10:29:56;;;;;;;11.27;2.15;;;25.70;92.50;;;;;;5132562;27;20401;-78
2022/01/02 10:32:34;;;;;;;8.85;2.05;;;25.60;92.70;;;;;;5132432;27;20393;-79
2022/01/02 10:35:19;;;;;;;9.10;2.10;;;25.60;93.10;;;;;;5132494;27;20461;-79
2022/01/02 10:37:53;;;;;;;8.93;2.28;;;25.60;93.30;;;;;;5132471;27;20833;-79
2022/01/02 10:40:35;;;;;;;11.15;2.45;;;25.50;93.80;;;;;;5132128;27;20425;-77
2022/01/02 10:43:32;;;;;;;12.13;2.30;;;25.40;94.80;;;;;;5132452;27;20357;-78
2022/01/02 10:46:03;;;;;;;11.15;2.20;;;25.30;95.20;;;;;;5121442;27;20449;-78
2022/01/02 10:48:41;;;;;;;11.10;2.30;;;25.20;95.80;;;;;;5132451;27;20361;-77
2022/01/02 10:51:17;;;;;;;12.27;2.45;;;25.10;96.30;;;;;;5132314;27;20369;-78
2022/01/02 10:53:57;;;;;;;8.70;2.33;;;25.10;96.70;;;;;;5132076;27;20392;-78
2022/01/02 10:56:26;;;;;;;12.10;2.35;;;25.10;97.10;;;;;;5132271;27;20376;-78
2022/01/02 10:58:54;;;;;;;11.40;2.45;;;25.00;97.60;;;;;;5132110;27;20438;-77
2022/01/02 11:01:22;;;;;;;11.40;2.33;;;25.00;98.10;;;;;;5132262;27;20375;-78
2022/01/02 11:03:50;;;;;;;13.00;2.25;;;25.00;98.20;;;;;;5113612;27;20370;-78
2022/01/02 11:06:29;;;;;;;10.52;2.20;;;25.00;98.20;;;;;;5113857;27;20407;-78
2022/01/02 11:08:59;;;;;;;10.20;2.53;;;24.90;98.50;;;;;;5131661;27;20361;-78
2022/01/02 11:11:27;;;;;;;9.15;2.25;;;24.80;98.70;;;;;;5131719;27;20947;-78
2022/01/02 11:13:56;;;;;;;13.10;2.33;;;24.80;99.30;;;;;;5131131;27;20400;-77
2022/01/02 11:16:25;;;;;;;8.60;2.20;;;24.70;99.70;;;;;;5131598;27;20720;-78
2022/01/02 11:18:52;;;;;;;11.43;2.50;;;24.70;99.70;;;;;;5131622;27;20377;-78
2022/01/02 11:21:20;;;;;;;12.45;2.42;;;24.50;99.90;;;;;;5131722;27;20737;-78
2022/01/02 11:24:18;;;;;;;8.60;2.30;;;24.50;99.90;;;;;;5131778;27;20409;-78
2022/01/02 11:26:56;;;;;;;12.13;2.38;;;24.40;99.90;;;;;;5126656;27;20405;-78
2022/01/02 11:29:31;;;;;;;13.30;2.40;;;24.40;99.90;;;;;;5132073;27;20828;-79
2022/01/02 11:31:59;;;;;;;13.43;2.58;;;24.30;99.90;;;;;;5131416;27;20373;-79
2022/01/02 11:34:32;;;;;;;11.60;2.28;;;24.10;99.90;;;;;;5113277;27;20871;-77
2022/01/02 11:37:25;;;;;;;9.82;2.35;;;24.00;99.90;;;;;;5131286;27;20374;-78
2022/01/02 11:39:59;;;;;;;9.40;2.27;;;24.10;99.90;;;;;;5130993;27;20357;-78
2022/01/02 11:42:36;;;;;;;11.05;2.30;;;24.10;99.90;;;;;;5131165;27;20373;-78
2022/01/02 11:45:08;;;;;;;10.93;2.50;;;24.10;99.90;;;;;;5131088;27;20400;-78
2022/01/02 11:47:47;;;;;;;11.73;2.20;;;24.00;99.90;;;;;;5131205;27;20391;-78
2022/01/02 11:50:36;;;;;;;10.65;2.17;;;24.00;99.90;;;;;;5131061;27;20362;-78
2022/01/02 11:53:23;;;;;;;14.35;2.67;;;24.00;99.90;;;;;;5131133;27;20439;-76
2022/01/02 11:55:52;;;;;;;14.38;2.60;;;24.00;99.90;;;;;;5131061;27;20762;-80
2022/01/02 11:58:46;;;;;;;11.98;2.60;;;23.90;99.90;;;;;;5131021;27;20369;-78
2022/01/02 12:01:51;;;;;;;12.98;2.15;;;23.90;99.90;;;;;;5131278;27;20880;-78
2022/01/02 12:04:18;;;;;;;11.23;2.30;;;23.90;99.90;;;;;;5130925;27;20447;-78
2022/01/02 12:06:45;;;;;;;9.68;2.10;;;23.80;99.90;;;;;;5130704;27;20439;-78
2022/01/02 12:09:35;;;;;;;10.18;2.22;;;23.80;99.90;;;;;;5130621;27;20375;-78
2022/01/02 12:12:05;;;;;;;13.30;2.25;;;23.80;99.90;;;;;;5130673;27;20384;-79
2022/01/02 12:14:32;;;;;;;11.02;2.47;;;23.80;99.90;;;;;;5130864;27;20365;-78
2022/01/02 12:17:11;;;;;;;10.35;2.30;;;23.70;99.90;;;;;;5130478;27;20369;-79
2022/01/02 12:19:58;;;;;;;10.03;2.33;;;23.70;99.90;;;;;;5130488;27;20456;-78
2022/01/02 12:22:43;;;;;;;12.35;2.20;;;23.50;99.90;;;;;;5130695;27;20380;-78
2022/01/02 12:25:13;;;;;;;7.17;2.07;;;23.40;99.90;;;;;;5129862;27;20391;-79
2022/01/02 12:27:49;;;;;;;11.45;2.35;;;23.40;99.90;;;;;;5130204;27;20710;-78
2022/01/02 12:30:17;;;;;;;10.05;2.10;;;23.30;99.90;;;;;;5130216;27;20449;-78
2022/01/02 12:32:47;;;;;;;11.37;2.30;;;23.30;99.90;;;;;;5130259;27;20373;-78
2022/01/02 12:35:15;;;;;;;11.82;2.30;;;23.40;99.90;;;;;;5130182;27;20369;-78
2022/01/02 12:37:43;;;;;;;12.23;2.20;;;23.40;99.90;;;;;;5129980;27;20789;-78
2022/01/02 12:40:18;;;;;;;11.20;2.47;;;23.50;99.90;;;;;;5130014;27;20381;-78
2022/01/02 12:42:46;;;;;;;12.10;2.42;;;23.50;99.90;;;;;;5130042;27;20376;-78
2022/01/02 12:45:17;;;;;;;11.93;2.55;;;23.60;99.90;;;;;;5130004;27;20816;-78
2022/01/02 12:47:52;;;;;;;9.80;2.40;;;23.50;99.90;;;;;;5129980;27;20369;-79
2022/01/02 12:50:27;;;;;;;14.30;2.53;;;23.50;99.90;;;;;;5129854;27;20375;-79
2022/01/02 12:52:55;;;;;;;10.48;2.30;;;23.50;99.90;;;;;;5130129;27;20369;-79
2022/01/02 12:55:22;;;;;;;11.57;2.50;;;23.40;99.90;;;;;;5129946;27;20490;-79
2022/01/02 12:57:50;;;;;;;11.13;2.27;;;23.50;99.90;;;;;;5129800;27;20369;-79
2022/01/02 13:00:23;;;;;;;11.27;2.40;;;23.40;99.90;;;;;;5129686;27;20872;-78
2022/01/02 13:02:53;;;;;;;11.48;2.40;;;23.50;99.90;;;;;;5129816;27;20457;-78
2022/01/02 13:05:20;;;;;;;11.40;2.53;;;23.50;99.90;;;;;;5129749;27;20400;-78
2022/01/02 13:07:55;;;;;;;11.80;2.33;;;23.50;99.90;;;;;;5129601;27;20871;-78